TimeEST,TemperatureF,Dew PointF,Humidity,Sea Level PressureIn,VisibilityMPH,Wind Direction,Wind SpeedMPH,Gust SpeedMPH,PrecipitationIn,Events,Conditions,WindDirDegrees,DateUTC
12:00 AM,27.0,23.0,85,30.25,-9999.0,Calm,Calm,-,N/A,,Clear,0,2012-11-27 05:00:00
1:00 AM,30.0,26.1,85,30.24,-9999.0,Calm,Calm,-,N/A,,Mostly Cloudy,0,2012-11-27 06:00:00
2:00 AM,32.0,27.0,82,30.27,-9999.0,Calm,Calm,-,N/A,,Overcast,0,2012-11-27 07:00:00
3:00 AM,33.1,28.0,82,30.25,-9999.0,Calm,Calm,-,N/A,,Overcast,0,2012-11-27 08:00:00
4:00 AM,34.0,28.9,82,30.23,-9999.0,Calm,Calm,-,N/A,,Overcast,0,2012-11-27 09:00:00
5:00 AM,34.0,27.0,75,30.24,-9999.0,Calm,Calm,-,N/A,,Overcast,0,2012-11-27 10:00:00
6:00 AM,37.0,28.9,73,30.25,-9999.0,NNE,3.5,-,N/A,,Overcast,20,2012-11-27 11:00:00
7:00 AM,37.0,32.0,82,30.27,-9999.0,Calm,Calm,-,0.00,Rain,Light Rain,0,2012-11-27 12:00:00
7:07 AM,35.6,33.8,93,30.28,-9999.0,Calm,Calm,-,0.00,Rain,Light Rain,0,2012-11-27 12:07:00
8:00 AM,37.4,35.6,93,30.27,-9999.0,ENE,4.6,-,0.00,Rain,Light Rain,60,2012-11-27 13:00:00
8:06 AM,39.0,36.0,89,30.27,-9999.0,ENE,5.8,-,0.00,Rain,Light Rain,60,2012-11-27 13:06:00
9:00 AM,39.0,36.0,89,30.24,-9999.0,NE,5.8,-,0.00,Rain,Light Rain,50,2012-11-27 14:00:00
9:42 AM,39.2,37.4,93,30.24,-9999.0,NE,3.5,-,0.00,Rain,Light Rain,40,2012-11-27 14:42:00
10:00 AM,39.0,37.9,96,30.24,-9999.0,Calm,Calm,-,0.00,Rain,Light Rain,0,2012-11-27 15:00:00
10:41 AM,39.2,37.4,93,30.23,-9999.0,NNE,3.5,-,0.00,Rain,Light Rain,20,2012-11-27 15:41:00
11:00 AM,39.2,37.4,93,30.23,-9999.0,North,4.6,-,0.00,Rain,Light Rain,10,2012-11-27 16:00:00
11:06 AM,39.0,37.0,93,30.23,-9999.0,North,5.8,-,0.00,Rain,Light Rain,360,2012-11-27 16:06:00
11:19 AM,39.2,37.4,93,30.23,-9999.0,North,5.8,-,0.00,Rain,Light Rain,360,2012-11-27 16:19:00
1:00 PM,39.0,37.9,96,30.19,-9999.0,Variable,3.5,-,N/A,Rain,Rain,0,2012-11-27 18:00:00
1:20 PM,39.2,37.4,93,30.18,-9999.0,Variable,5.8,-,N/A,Rain,Rain,0,2012-11-27 18:20:00
1:48 PM,37.4,37.4,100,30.18,-9999.0,North,8.1,-,N/A,Rain,Light Rain,350,2012-11-27 18:48:00
2:19 PM,37.4,35.6,93,30.18,-9999.0,North,8.1,-,N/A,Rain,Light Rain,10,2012-11-27 19:19:00
2:41 PM,37.4,35.6,93,30.18,-9999.0,NNE,5.8,-,N/A,Rain,Rain,30,2012-11-27 19:41:00
3:00 PM,37.0,35.1,93,30.18,-9999.0,NNE,5.8,-,N/A,Rain,Light Rain,20,2012-11-27 20:00:00
3:44 PM,37.4,35.6,93,30.17,-9999.0,Variable,3.5,-,N/A,Rain,Light Rain,0,2012-11-27 20:44:00
4:00 PM,37.0,35.1,93,30.17,-9999.0,Variable,5.8,-,N/A,,Overcast,0,2012-11-27 21:00:00
4:11 PM,37.4,35.6,93,30.17,-9999.0,North,4.6,-,N/A,,Overcast,360,2012-11-27 21:11:00
4:28 PM,37.4,35.6,93,30.17,-9999.0,Variable,3.5,-,N/A,Rain,Light Rain,0,2012-11-27 21:28:00
4:50 PM,37.4,35.6,93,30.17,-9999.0,Variable,3.5,-,N/A,,Overcast,0,2012-11-27 21:50:00
6:00 PM,37.9,36.0,93,30.16,-9999.0,Variable,4.6,-,N/A,,Overcast,0,2012-11-27 23:00:00
7:00 PM,37.9,36.0,93,30.18,-9999.0,Variable,5.8,-,N/A,,Overcast,0,2012-11-28 00:00:00
8:00 PM,37.0,36.0,96,30.19,-9999.0,Variable,4.6,-,N/A,,Overcast,0,2012-11-28 01:00:00
8:22 PM,37.4,35.6,93,30.20,-9999.0,Variable,5.8,-,N/A,,Overcast,0,2012-11-28 01:22:00
9:00 PM,37.0,36.0,96,30.20,-9999.0,North,4.6,-,N/A,,Overcast,350,2012-11-28 02:00:00
9:42 PM,37.4,35.6,93,30.19,-9999.0,North,4.6,-,N/A,,Overcast,350,2012-11-28 02:42:00
9:52 PM,-9999,-9999,N/A,-9999,-9999.0,North,-9999.0,-,N/A,,Unknown,0,2012-11-28 02:52:00
10:00 PM,37.0,35.1,93,30.19,-9999.0,Variable,3.5,-,N/A,,Overcast,0,2012-11-28 03:00:00
11:00 PM,37.0,35.1,93,30.19,-9999.0,NNW,5.8,-,N/A,,Overcast,330,2012-11-28 04:00:00